Portada
METAR-TAF:

METAR-TAF

Aeroports :

Wattisham, Anglaterra

latitud: 52-07N, longitud: 000-58E, altitud: 87 m

Observació

L'informe es va fer fa 33 minuts, a les 08:50 UTC
Vent 7 kt del Sud-Oest
Temperatura 22°C
Humitat 53%
Pressió 1015 hPa
Visibilitat 10 km o més
sense núvols per sota de 1500 mi sense presència de cumulonimbus.

METAR: EGUW 170850Z 22007KT CAVOK 22/12 Q1015 NOSIG RMK BLU BLU

Hora: 10:23 (09:23 UTC)

Pronòstic

L'informe es va fer fa 1 hora i 54 minuts, a les 07:29 UTC
Pronòstic vàlid del 17 a les 09 UTC al 17 a les 18 UTC
Vent 10 kt del Sud/Sud-Oest
Visibilitat 10 km o més
sense núvols per sota de 1500 mi sense presència de cumulonimbus.

TAF: EGUW 170729Z 1709/1718 20010KT CAVOK

Observacions i pronòstics meteorològics de més de 4000 aeroports (METAR i TAF).

Les estacions disponibles són els punts grocs i vermells al mapa.

Posi el ratolí al punt desitjat per veure el nom de l'estació.

Feu clic per veure les observacions i els pronòstics meteorològics.

Per canviar el mapa: feu clic els botons verds amb una creu de color negre per apropar; al botó verd amb un guió per allunyar la imatge; o en les fletxes verdes per a mapes adjacents.


METAR-TAF: